sensor_id;sensor_type;location;lat;lon;timestamp;P1;durP1;ratioP1;P2;durP2;ratioP2
26407;SDS011;14583;43.604;1.364;2022-12-11T00:00:30;110.50;;;60.10;;
26407;SDS011;14583;43.604;1.364;2022-12-11T00:02:56;110.40;;;62.20;;
26407;SDS011;14583;43.604;1.364;2022-12-11T00:05:22;115.22;;;62.90;;
26407;SDS011;14583;43.604;1.364;2022-12-11T00:07:48;116.72;;;65.75;;
26407;SDS011;14583;43.604;1.364;2022-12-11T00:10:13;114.03;;;64.63;;
26407;SDS011;14583;43.604;1.364;2022-12-11T00:12:39;124.47;;;68.20;;
26407;SDS011;14583;43.604;1.364;2022-12-11T00:15:05;117.28;;;65.15;;
26407;SDS011;14583;43.604;1.364;2022-12-11T00:17:31;114.47;;;66.32;;
26407;SDS011;14583;43.604;1.364;2022-12-11T00:19:56;126.25;;;69.07;;
26407;SDS011;14583;43.604;1.364;2022-12-11T00:22:22;115.70;;;64.45;;
26407;SDS011;14583;43.604;1.364;2022-12-11T00:24:48;109.70;;;63.70;;
26407;SDS011;14583;43.604;1.364;2022-12-11T00:27:13;116.05;;;65.10;;
26407;SDS011;14583;43.604;1.364;2022-12-11T00:29:39;119.47;;;65.97;;
26407;SDS011;14583;43.604;1.364;2022-12-11T00:32:04;112.25;;;62.92;;
26407;SDS011;14583;43.604;1.364;2022-12-11T00:34:30;111.22;;;63.67;;
26407;SDS011;14583;43.604;1.364;2022-12-11T00:36:56;118.80;;;63.75;;
26407;SDS011;14583;43.604;1.364;2022-12-11T00:39:23;118.07;;;65.03;;
26407;SDS011;14583;43.604;1.364;2022-12-11T00:41:48;109.15;;;63.08;;
26407;SDS011;14583;43.604;1.364;2022-12-11T00:44:14;107.72;;;59.17;;
26407;SDS011;14583;43.604;1.364;2022-12-11T00:46:39;106.65;;;60.65;;
26407;SDS011;14583;43.604;1.364;2022-12-11T00:49:05;110.70;;;61.60;;
26407;SDS011;14583;43.604;1.364;2022-12-11T00:51:31;113.07;;;60.38;;
26407;SDS011;14583;43.604;1.364;2022-12-11T00:53:56;101.13;;;55.15;;
26407;SDS011;14583;43.604;1.364;2022-12-11T00:56:22;102.55;;;57.42;;
26407;SDS011;14583;43.604;1.364;2022-12-11T00:58:48;104.07;;;57.72;;
26407;SDS011;14583;43.604;1.364;2022-12-11T01:01:16;98.22;;;55.45;;
26407;SDS011;14583;43.604;1.364;2022-12-11T01:03:43;95.57;;;54.72;;
26407;SDS011;14583;43.604;1.364;2022-12-11T01:06:13;102.40;;;55.40;;
26407;SDS011;14583;43.604;1.364;2022-12-11T01:08:40;95.28;;;53.80;;
26407;SDS011;14583;43.604;1.364;2022-12-11T01:11:08;95.18;;;53.55;;
26407;SDS011;14583;43.604;1.364;2022-12-11T01:13:35;92.30;;;53.17;;
26407;SDS011;14583;43.604;1.364;2022-12-11T01:16:12;96.40;;;55.47;;
26407;SDS011;14583;43.604;1.364;2022-12-11T01:18:41;108.70;;;55.92;;
26407;SDS011;14583;43.604;1.364;2022-12-11T01:21:07;93.00;;;54.15;;
26407;SDS011;14583;43.604;1.364;2022-12-11T01:23:34;103.38;;;56.00;;
26407;SDS011;14583;43.604;1.364;2022-12-11T01:26:03;98.97;;;53.17;;
26407;SDS011;14583;43.604;1.364;2022-12-11T01:28:33;87.97;;;52.30;;
26407;SDS011;14583;43.604;1.364;2022-12-11T01:30:59;90.38;;;52.70;;
26407;SDS011;14583;43.604;1.364;2022-12-11T01:33:25;88.43;;;52.78;;
26407;SDS011;14583;43.604;1.364;2022-12-11T01:35:50;95.38;;;55.22;;
26407;SDS011;14583;43.604;1.364;2022-12-11T01:38:16;95.82;;;54.92;;
26407;SDS011;14583;43.604;1.364;2022-12-11T01:40:46;97.25;;;54.47;;
26407;SDS011;14583;43.604;1.364;2022-12-11T01:43:13;97.78;;;53.40;;
26407;SDS011;14583;43.604;1.364;2022-12-11T01:45:39;90.43;;;53.28;;
26407;SDS011;14583;43.604;1.364;2022-12-11T01:48:12;95.82;;;53.28;;
26407;SDS011;14583;43.604;1.364;2022-12-11T01:50:51;96.18;;;53.22;;
26407;SDS011;14583;43.604;1.364;2022-12-11T01:53:20;92.40;;;52.65;;
26407;SDS011;14583;43.604;1.364;2022-12-11T01:55:49;91.05;;;51.83;;
26407;SDS011;14583;43.604;1.364;2022-12-11T01:58:17;91.18;;;53.70;;
26407;SDS011;14583;43.604;1.364;2022-12-11T02:00:44;89.75;;;51.75;;
26407;SDS011;14583;43.604;1.364;2022-12-11T02:03:10;95.10;;;53.30;;
26407;SDS011;14583;43.604;1.364;2022-12-11T02:05:36;86.72;;;50.58;;
26407;SDS011;14583;43.604;1.364;2022-12-11T02:08:03;92.07;;;51.55;;
26407;SDS011;14583;43.604;1.364;2022-12-11T02:18:41;92.65;;;50.95;;
26407;SDS011;14583;43.604;1.364;2022-12-11T02:21:31;86.70;;;51.28;;
26407;SDS011;14583;43.604;1.364;2022-12-11T02:29:50;90.80;;;50.42;;
26407;SDS011;14583;43.604;1.364;2022-12-11T02:32:26;92.15;;;52.28;;
26407;SDS011;14583;43.604;1.364;2022-12-11T02:37:30;92.20;;;50.30;;
26407;SDS011;14583;43.604;1.364;2022-12-11T02:39:57;84.63;;;48.53;;
26407;SDS011;14583;43.604;1.364;2022-12-11T02:42:23;84.03;;;49.63;;
26407;SDS011;14583;43.604;1.364;2022-12-11T02:44:53;86.30;;;50.13;;
26407;SDS011;14583;43.604;1.364;2022-12-11T02:47:21;92.53;;;51.30;;
26407;SDS011;14583;43.604;1.364;2022-12-11T02:49:49;87.20;;;48.08;;
26407;SDS011;14583;43.604;1.364;2022-12-11T02:52:17;88.50;;;52.15;;
26407;SDS011;14583;43.604;1.364;2022-12-11T02:54:46;86.97;;;49.72;;
26407;SDS011;14583;43.604;1.364;2022-12-11T02:57:37;91.72;;;48.45;;
26407;SDS011;14583;43.604;1.364;2022-12-11T03:00:03;86.03;;;49.75;;
26407;SDS011;14583;43.604;1.364;2022-12-11T03:02:30;89.43;;;50.17;;
26407;SDS011;14583;43.604;1.364;2022-12-11T03:04:56;88.05;;;51.35;;
26407;SDS011;14583;43.604;1.364;2022-12-11T03:07:25;87.75;;;50.95;;
26407;SDS011;14583;43.604;1.364;2022-12-11T03:09:53;90.65;;;52.17;;
26407;SDS011;14583;43.604;1.364;2022-12-11T03:12:20;93.13;;;52.10;;
26407;SDS011;14583;43.604;1.364;2022-12-11T03:14:50;93.80;;;51.78;;
26407;SDS011;14583;43.604;1.364;2022-12-11T03:17:20;92.35;;;52.05;;
26407;SDS011;14583;43.604;1.364;2022-12-11T03:25:22;92.70;;;51.40;;
26407;SDS011;14583;43.604;1.364;2022-12-11T03:28:02;89.90;;;51.60;;
26407;SDS011;14583;43.604;1.364;2022-12-11T03:30:29;89.10;;;49.85;;
26407;SDS011;14583;43.604;1.364;2022-12-11T03:33:05;92.88;;;50.45;;
26407;SDS011;14583;43.604;1.364;2022-12-11T03:35:47;90.70;;;50.17;;
26407;SDS011;14583;43.604;1.364;2022-12-11T03:38:22;94.00;;;52.55;;
26407;SDS011;14583;43.604;1.364;2022-12-11T03:40:55;97.18;;;53.75;;
26407;SDS011;14583;43.604;1.364;2022-12-11T03:43:24;97.85;;;55.40;;
26407;SDS011;14583;43.604;1.364;2022-12-11T03:45:52;95.05;;;55.92;;
26407;SDS011;14583;43.604;1.364;2022-12-11T03:48:19;101.45;;;58.30;;
26407;SDS011;14583;43.604;1.364;2022-12-11T03:50:47;103.70;;;58.78;;
26407;SDS011;14583;43.604;1.364;2022-12-11T03:53:14;98.70;;;55.92;;
26407;SDS011;14583;43.604;1.364;2022-12-11T03:55:40;107.00;;;57.55;;
26407;SDS011;14583;43.604;1.364;2022-12-11T03:58:06;101.18;;;56.25;;
26407;SDS011;14583;43.604;1.364;2022-12-11T04:00:32;100.30;;;54.95;;
26407;SDS011;14583;43.604;1.364;2022-12-11T04:02:58;98.13;;;55.28;;
26407;SDS011;14583;43.604;1.364;2022-12-11T04:05:49;99.43;;;54.60;;
26407;SDS011;14583;43.604;1.364;2022-12-11T04:08:17;95.85;;;53.80;;
26407;SDS011;14583;43.604;1.364;2022-12-11T04:10:44;99.18;;;57.08;;
26407;SDS011;14583;43.604;1.364;2022-12-11T04:13:10;105.57;;;57.60;;
26407;SDS011;14583;43.604;1.364;2022-12-11T04:15:37;107.70;;;59.38;;
26407;SDS011;14583;43.604;1.364;2022-12-11T04:18:03;115.35;;;60.45;;
26407;SDS011;14583;43.604;1.364;2022-12-11T04:20:48;118.10;;;61.83;;
26407;SDS011;14583;43.604;1.364;2022-12-11T04:23:35;109.18;;;61.60;;
26407;SDS011;14583;43.604;1.364;2022-12-11T04:26:19;114.70;;;62.40;;
26407;SDS011;14583;43.604;1.364;2022-12-11T04:28:46;113.07;;;60.13;;
26407;SDS011;14583;43.604;1.364;2022-12-11T04:31:16;112.85;;;59.67;;
26407;SDS011;14583;43.604;1.364;2022-12-11T04:33:44;105.65;;;59.42;;
26407;SDS011;14583;43.604;1.364;2022-12-11T04:36:10;105.53;;;58.70;;
26407;SDS011;14583;43.604;1.364;2022-12-11T04:38:36;106.45;;;57.83;;
26407;SDS011;14583;43.604;1.364;2022-12-11T04:41:03;107.03;;;57.80;;
26407;SDS011;14583;43.604;1.364;2022-12-11T04:43:32;100.05;;;57.40;;
26407;SDS011;14583;43.604;1.364;2022-12-11T04:48:38;105.93;;;55.55;;
26407;SDS011;14583;43.604;1.364;2022-12-11T04:51:04;100.15;;;54.85;;
26407;SDS011;14583;43.604;1.364;2022-12-11T04:53:30;101.72;;;55.42;;
26407;SDS011;14583;43.604;1.364;2022-12-11T04:55:56;104.47;;;58.25;;
26407;SDS011;14583;43.604;1.364;2022-12-11T04:58:22;104.07;;;57.80;;
26407;SDS011;14583;43.604;1.364;2022-12-11T05:00:48;100.05;;;56.22;;
26407;SDS011;14583;43.604;1.364;2022-12-11T05:03:14;101.43;;;57.17;;
26407;SDS011;14583;43.604;1.364;2022-12-11T05:05:40;108.28;;;59.33;;
26407;SDS011;14583;43.604;1.364;2022-12-11T05:08:10;102.35;;;56.05;;
26407;SDS011;14583;43.604;1.364;2022-12-11T05:10:36;106.30;;;58.88;;
26407;SDS011;14583;43.604;1.364;2022-12-11T05:13:02;112.30;;;58.88;;
26407;SDS011;14583;43.604;1.364;2022-12-11T05:15:27;109.68;;;57.92;;
26407;SDS011;14583;43.604;1.364;2022-12-11T05:17:53;106.53;;;56.33;;
26407;SDS011;14583;43.604;1.364;2022-12-11T05:20:18;119.32;;;56.40;;
26407;SDS011;14583;43.604;1.364;2022-12-11T05:22:44;106.20;;;55.45;;
26407;SDS011;14583;43.604;1.364;2022-12-11T05:25:10;111.40;;;56.40;;
26407;SDS011;14583;43.604;1.364;2022-12-11T05:27:35;107.30;;;55.22;;
26407;SDS011;14583;43.604;1.364;2022-12-11T05:30:01;116.47;;;55.08;;
26407;SDS011;14583;43.604;1.364;2022-12-11T05:32:27;104.28;;;54.20;;
26407;SDS011;14583;43.604;1.364;2022-12-11T05:34:53;98.90;;;52.58;;
26407;SDS011;14583;43.604;1.364;2022-12-11T05:37:19;98.47;;;52.92;;
26407;SDS011;14583;43.604;1.364;2022-12-11T05:39:44;99.97;;;50.83;;
26407;SDS011;14583;43.604;1.364;2022-12-11T05:42:10;95.85;;;51.83;;
26407;SDS011;14583;43.604;1.364;2022-12-11T05:44:35;91.72;;;49.85;;
26407;SDS011;14583;43.604;1.364;2022-12-11T05:47:01;91.93;;;49.78;;
26407;SDS011;14583;43.604;1.364;2022-12-11T05:49:27;90.28;;;49.30;;
26407;SDS011;14583;43.604;1.364;2022-12-11T05:51:52;90.63;;;47.90;;
26407;SDS011;14583;43.604;1.364;2022-12-11T05:54:18;89.68;;;47.55;;
26407;SDS011;14583;43.604;1.364;2022-12-11T05:56:44;84.70;;;45.38;;
26407;SDS011;14583;43.604;1.364;2022-12-11T05:59:09;82.25;;;46.75;;
26407;SDS011;14583;43.604;1.364;2022-12-11T06:01:36;85.38;;;47.13;;
26407;SDS011;14583;43.604;1.364;2022-12-11T06:04:03;86.05;;;46.95;;
26407;SDS011;14583;43.604;1.364;2022-12-11T06:06:30;80.70;;;45.95;;
26407;SDS011;14583;43.604;1.364;2022-12-11T06:08:57;80.28;;;45.75;;
26407;SDS011;14583;43.604;1.364;2022-12-11T06:11:24;76.35;;;43.17;;
26407;SDS011;14583;43.604;1.364;2022-12-11T06:13:52;87.03;;;47.08;;
26407;SDS011;14583;43.604;1.364;2022-12-11T06:16:18;82.00;;;44.92;;
26407;SDS011;14583;43.604;1.364;2022-12-11T06:18:45;85.45;;;47.38;;
26407;SDS011;14583;43.604;1.364;2022-12-11T06:21:14;80.57;;;46.78;;
26407;SDS011;14583;43.604;1.364;2022-12-11T06:23:45;83.38;;;44.60;;
26407;SDS011;14583;43.604;1.364;2022-12-11T06:26:12;84.15;;;46.35;;
26407;SDS011;14583;43.604;1.364;2022-12-11T06:28:39;76.65;;;44.78;;
26407;SDS011;14583;43.604;1.364;2022-12-11T06:31:05;75.93;;;41.65;;
26407;SDS011;14583;43.604;1.364;2022-12-11T06:33:31;78.32;;;44.17;;
26407;SDS011;14583;43.604;1.364;2022-12-11T06:36:19;76.40;;;44.22;;
26407;SDS011;14583;43.604;1.364;2022-12-11T06:38:46;76.53;;;43.47;;
26407;SDS011;14583;43.604;1.364;2022-12-11T06:41:11;71.40;;;42.00;;
26407;SDS011;14583;43.604;1.364;2022-12-11T06:43:38;71.88;;;42.05;;
26407;SDS011;14583;43.604;1.364;2022-12-11T06:46:06;76.18;;;43.70;;
26407;SDS011;14583;43.604;1.364;2022-12-11T06:48:33;73.35;;;42.17;;
26407;SDS011;14583;43.604;1.364;2022-12-11T06:50:58;77.57;;;43.05;;
26407;SDS011;14583;43.604;1.364;2022-12-11T06:53:28;71.35;;;42.75;;
26407;SDS011;14583;43.604;1.364;2022-12-11T06:55:54;71.85;;;41.88;;
26407;SDS011;14583;43.604;1.364;2022-12-11T06:58:19;70.13;;;41.25;;
26407;SDS011;14583;43.604;1.364;2022-12-11T07:00:45;71.13;;;41.13;;
26407;SDS011;14583;43.604;1.364;2022-12-11T07:03:10;71.03;;;41.28;;
26407;SDS011;14583;43.604;1.364;2022-12-11T07:05:37;68.38;;;39.75;;
26407;SDS011;14583;43.604;1.364;2022-12-11T07:08:03;70.63;;;43.00;;
26407;SDS011;14583;43.604;1.364;2022-12-11T07:10:29;73.70;;;40.88;;
26407;SDS011;14583;43.604;1.364;2022-12-11T07:12:54;76.22;;;41.88;;
26407;SDS011;14583;43.604;1.364;2022-12-11T07:15:20;70.50;;;41.22;;
26407;SDS011;14583;43.604;1.364;2022-12-11T07:17:45;73.82;;;42.22;;
26407;SDS011;14583;43.604;1.364;2022-12-11T07:20:11;74.90;;;41.53;;
26407;SDS011;14583;43.604;1.364;2022-12-11T07:22:37;71.90;;;42.13;;
26407;SDS011;14583;43.604;1.364;2022-12-11T07:25:02;72.15;;;41.47;;
26407;SDS011;14583;43.604;1.364;2022-12-11T07:27:28;65.40;;;38.85;;
26407;SDS011;14583;43.604;1.364;2022-12-11T07:29:54;77.70;;;41.08;;
26407;SDS011;14583;43.604;1.364;2022-12-11T07:32:20;73.75;;;41.53;;
26407;SDS011;14583;43.604;1.364;2022-12-11T07:34:49;76.20;;;41.65;;
26407;SDS011;14583;43.604;1.364;2022-12-11T07:37:15;69.50;;;40.08;;
26407;SDS011;14583;43.604;1.364;2022-12-11T07:39:41;72.90;;;41.90;;
26407;SDS011;14583;43.604;1.364;2022-12-11T07:42:06;70.47;;;41.38;;
26407;SDS011;14583;43.604;1.364;2022-12-11T07:44:32;77.57;;;41.80;;
26407;SDS011;14583;43.604;1.364;2022-12-11T07:46:58;76.00;;;42.30;;
26407;SDS011;14583;43.604;1.364;2022-12-11T07:49:23;71.75;;;42.08;;
26407;SDS011;14583;43.604;1.364;2022-12-11T07:51:49;67.22;;;40.83;;
26407;SDS011;14583;43.604;1.364;2022-12-11T07:54:15;75.78;;;40.97;;
26407;SDS011;14583;43.604;1.364;2022-12-11T07:56:41;73.18;;;41.75;;
26407;SDS011;14583;43.604;1.364;2022-12-11T07:59:08;70.50;;;41.80;;
26407;SDS011;14583;43.604;1.364;2022-12-11T08:01:34;70.57;;;41.53;;
26407;SDS011;14583;43.604;1.364;2022-12-11T08:04:02;78.82;;;43.17;;
26407;SDS011;14583;43.604;1.364;2022-12-11T08:06:30;67.13;;;40.78;;
26407;SDS011;14583;43.604;1.364;2022-12-11T08:08:59;69.75;;;40.17;;
26407;SDS011;14583;43.604;1.364;2022-12-11T08:11:27;72.63;;;41.38;;
26407;SDS011;14583;43.604;1.364;2022-12-11T08:13:53;66.55;;;40.25;;
26407;SDS011;14583;43.604;1.364;2022-12-11T08:16:19;70.03;;;39.95;;
26407;SDS011;14583;43.604;1.364;2022-12-11T08:18:45;65.53;;;40.25;;
26407;SDS011;14583;43.604;1.364;2022-12-11T08:21:16;67.63;;;41.95;;
26407;SDS011;14583;43.604;1.364;2022-12-11T08:23:44;72.53;;;40.63;;
26407;SDS011;14583;43.604;1.364;2022-12-11T08:26:11;66.72;;;41.22;;
26407;SDS011;14583;43.604;1.364;2022-12-11T08:28:39;72.63;;;41.08;;
26407;SDS011;14583;43.604;1.364;2022-12-11T08:31:06;68.85;;;40.75;;
26407;SDS011;14583;43.604;1.364;2022-12-11T08:33:33;76.93;;;41.83;;
26407;SDS011;14583;43.604;1.364;2022-12-11T08:36:07;71.15;;;41.97;;
26407;SDS011;14583;43.604;1.364;2022-12-11T08:38:35;69.32;;;40.40;;
26407;SDS011;14583;43.604;1.364;2022-12-11T08:41:08;66.85;;;39.17;;
26407;SDS011;14583;43.604;1.364;2022-12-11T08:43:37;72.90;;;40.92;;
26407;SDS011;14583;43.604;1.364;2022-12-11T08:46:03;71.53;;;40.25;;
26407;SDS011;14583;43.604;1.364;2022-12-11T08:48:29;64.95;;;39.85;;
26407;SDS011;14583;43.604;1.364;2022-12-11T08:50:58;68.13;;;39.90;;
26407;SDS011;14583;43.604;1.364;2022-12-11T08:53:25;68.85;;;39.75;;
26407;SDS011;14583;43.604;1.364;2022-12-11T08:55:52;62.75;;;38.55;;
26407;SDS011;14583;43.604;1.364;2022-12-11T08:58:18;65.15;;;37.35;;
26407;SDS011;14583;43.604;1.364;2022-12-11T09:00:43;61.38;;;35.72;;
26407;SDS011;14583;43.604;1.364;2022-12-11T09:03:09;57.20;;;35.42;;
26407;SDS011;14583;43.604;1.364;2022-12-11T09:05:36;56.65;;;34.17;;
26407;SDS011;14583;43.604;1.364;2022-12-11T09:08:02;57.65;;;33.63;;
26407;SDS011;14583;43.604;1.364;2022-12-11T09:10:28;57.58;;;34.85;;
26407;SDS011;14583;43.604;1.364;2022-12-11T09:12:54;58.50;;;33.13;;
26407;SDS011;14583;43.604;1.364;2022-12-11T09:15:19;53.97;;;33.47;;
26407;SDS011;14583;43.604;1.364;2022-12-11T09:17:45;49.15;;;28.88;;
26407;SDS011;14583;43.604;1.364;2022-12-11T09:20:11;47.88;;;27.58;;
26407;SDS011;14583;43.604;1.364;2022-12-11T09:22:36;41.40;;;26.33;;
26407;SDS011;14583;43.604;1.364;2022-12-11T09:25:06;45.08;;;24.73;;
26407;SDS011;14583;43.604;1.364;2022-12-11T09:27:32;38.75;;;24.80;;
26407;SDS011;14583;43.604;1.364;2022-12-11T09:29:58;42.67;;;24.50;;
26407;SDS011;14583;43.604;1.364;2022-12-11T09:32:23;42.25;;;24.27;;
26407;SDS011;14583;43.604;1.364;2022-12-11T09:34:49;43.30;;;25.13;;
26407;SDS011;14583;43.604;1.364;2022-12-11T09:37:17;39.88;;;23.90;;
26407;SDS011;14583;43.604;1.364;2022-12-11T09:39:43;41.20;;;24.40;;
26407;SDS011;14583;43.604;1.364;2022-12-11T09:42:13;42.55;;;25.40;;
26407;SDS011;14583;43.604;1.364;2022-12-11T09:44:48;42.55;;;26.15;;
26407;SDS011;14583;43.604;1.364;2022-12-11T09:55:23;39.25;;;23.92;;
26407;SDS011;14583;43.604;1.364;2022-12-11T10:00:40;42.08;;;24.50;;
26407;SDS011;14583;43.604;1.364;2022-12-11T10:09:30;39.42;;;24.77;;
26407;SDS011;14583;43.604;1.364;2022-12-11T10:12:13;42.00;;;24.75;;
26407;SDS011;14583;43.604;1.364;2022-12-11T10:17:47;42.45;;;23.15;;
26407;SDS011;14583;43.604;1.364;2022-12-11T10:22:57;40.20;;;25.08;;
26407;SDS011;14583;43.604;1.364;2022-12-11T10:25:25;41.88;;;25.75;;
26407;SDS011;14583;43.604;1.364;2022-12-11T10:27:56;41.72;;;25.05;;
26407;SDS011;14583;43.604;1.364;2022-12-11T10:30:43;40.03;;;25.33;;
26407;SDS011;14583;43.604;1.364;2022-12-11T10:33:20;43.00;;;25.73;;
26407;SDS011;14583;43.604;1.364;2022-12-11T10:35:51;40.70;;;25.35;;
26407;SDS011;14583;43.604;1.364;2022-12-11T10:38:31;40.72;;;26.10;;
26407;SDS011;14583;43.604;1.364;2022-12-11T10:41:04;41.53;;;25.33;;
26407;SDS011;14583;43.604;1.364;2022-12-11T10:43:51;40.35;;;24.30;;
26407;SDS011;14583;43.604;1.364;2022-12-11T10:46:21;38.13;;;24.95;;
26407;SDS011;14583;43.604;1.364;2022-12-11T10:51:37;40.38;;;24.52;;
26407;SDS011;14583;43.604;1.364;2022-12-11T10:56:52;35.83;;;23.15;;
26407;SDS011;14583;43.604;1.364;2022-12-11T10:59:23;40.30;;;24.23;;
26407;SDS011;14583;43.604;1.364;2022-12-11T11:01:56;33.65;;;22.38;;
26407;SDS011;14583;43.604;1.364;2022-12-11T11:04:34;32.28;;;21.88;;
26407;SDS011;14583;43.604;1.364;2022-12-11T11:09:38;31.02;;;18.85;;
26407;SDS011;14583;43.604;1.364;2022-12-11T11:12:04;31.17;;;19.38;;
26407;SDS011;14583;43.604;1.364;2022-12-11T11:14:41;28.90;;;19.08;;
26407;SDS011;14583;43.604;1.364;2022-12-11T11:17:09;28.27;;;18.58;;
26407;SDS011;14583;43.604;1.364;2022-12-11T11:19:39;29.95;;;20.92;;
26407;SDS011;14583;43.604;1.364;2022-12-11T11:22:13;32.63;;;21.10;;
26407;SDS011;14583;43.604;1.364;2022-12-11T11:24:43;29.23;;;19.60;;
26407;SDS011;14583;43.604;1.364;2022-12-11T11:29:58;31.23;;;20.30;;
26407;SDS011;14583;43.604;1.364;2022-12-11T11:32:32;27.33;;;19.20;;
26407;SDS011;14583;43.604;1.364;2022-12-11T11:37:38;29.48;;;19.67;;
26407;SDS011;14583;43.604;1.364;2022-12-11T11:40:27;32.42;;;22.15;;
26407;SDS011;14583;43.604;1.364;2022-12-11T11:43:03;29.13;;;19.05;;
26407;SDS011;14583;43.604;1.364;2022-12-11T11:45:54;29.88;;;20.05;;
26407;SDS011;14583;43.604;1.364;2022-12-11T11:51:22;33.17;;;20.17;;
26407;SDS011;14583;43.604;1.364;2022-12-11T11:53:57;30.90;;;21.40;;
26407;SDS011;14583;43.604;1.364;2022-12-11T11:56:35;41.00;;;21.75;;
26407;SDS011;14583;43.604;1.364;2022-12-11T11:59:04;33.33;;;20.08;;
26407;SDS011;14583;43.604;1.364;2022-12-11T12:01:39;30.13;;;19.67;;
26407;SDS011;14583;43.604;1.364;2022-12-11T12:04:06;28.77;;;19.70;;
26407;SDS011;14583;43.604;1.364;2022-12-11T12:06:45;26.92;;;19.55;;
26407;SDS011;14583;43.604;1.364;2022-12-11T12:12:22;27.77;;;20.05;;
26407;SDS011;14583;43.604;1.364;2022-12-11T12:17:38;26.17;;;17.38;;
26407;SDS011;14583;43.604;1.364;2022-12-11T12:22:49;25.67;;;16.70;;
26407;SDS011;14583;43.604;1.364;2022-12-11T12:25:37;28.90;;;17.25;;
26407;SDS011;14583;43.604;1.364;2022-12-11T12:44:51;22.25;;;15.30;;
26407;SDS011;14583;43.604;1.364;2022-12-11T12:47:45;25.52;;;15.20;;
26407;SDS011;14583;43.604;1.364;2022-12-11T12:50:19;23.42;;;16.10;;
26407;SDS011;14583;43.604;1.364;2022-12-11T12:52:46;26.70;;;16.92;;
26407;SDS011;14583;43.604;1.364;2022-12-11T12:57:59;25.42;;;17.35;;
26407;SDS011;14583;43.604;1.364;2022-12-11T13:03:17;25.73;;;17.75;;
26407;SDS011;14583;43.604;1.364;2022-12-11T13:05:53;29.00;;;17.30;;
26407;SDS011;14583;43.604;1.364;2022-12-11T13:08:49;24.40;;;14.73;;
26407;SDS011;14583;43.604;1.364;2022-12-11T13:11:17;22.48;;;15.63;;
26407;SDS011;14583;43.604;1.364;2022-12-11T13:13:45;23.35;;;15.50;;
26407;SDS011;14583;43.604;1.364;2022-12-11T13:18:40;21.95;;;14.13;;
26407;SDS011;14583;43.604;1.364;2022-12-11T13:26:38;20.38;;;12.80;;
26407;SDS011;14583;43.604;1.364;2022-12-11T13:29:05;18.63;;;12.30;;
26407;SDS011;14583;43.604;1.364;2022-12-11T13:31:59;22.63;;;12.77;;
26407;SDS011;14583;43.604;1.364;2022-12-11T13:34:32;18.33;;;12.02;;
26407;SDS011;14583;43.604;1.364;2022-12-11T13:37:28;18.05;;;11.55;;
26407;SDS011;14583;43.604;1.364;2022-12-11T13:40:00;18.05;;;11.48;;
26407;SDS011;14583;43.604;1.364;2022-12-11T13:42:37;18.08;;;11.30;;
26407;SDS011;14583;43.604;1.364;2022-12-11T13:45:20;20.03;;;11.90;;
26407;SDS011;14583;43.604;1.364;2022-12-11T13:47:56;18.73;;;12.70;;
26407;SDS011;14583;43.604;1.364;2022-12-11T13:50:25;18.42;;;13.10;;
26407;SDS011;14583;43.604;1.364;2022-12-11T13:52:54;22.73;;;13.02;;
26407;SDS011;14583;43.604;1.364;2022-12-11T13:55:26;22.15;;;13.70;;
26407;SDS011;14583;43.604;1.364;2022-12-11T13:57:54;22.48;;;14.57;;
26407;SDS011;14583;43.604;1.364;2022-12-11T14:00:21;21.33;;;12.60;;
26407;SDS011;14583;43.604;1.364;2022-12-11T14:02:49;17.70;;;11.93;;
26407;SDS011;14583;43.604;1.364;2022-12-11T14:05:23;19.20;;;13.30;;
26407;SDS011;14583;43.604;1.364;2022-12-11T14:07:57;17.90;;;11.90;;
26407;SDS011;14583;43.604;1.364;2022-12-11T14:10:26;14.80;;;9.50;;
26407;SDS011;14583;43.604;1.364;2022-12-11T14:15:23;17.02;;;11.20;;
26407;SDS011;14583;43.604;1.364;2022-12-11T14:17:50;17.85;;;11.93;;
26407;SDS011;14583;43.604;1.364;2022-12-11T14:20:30;16.45;;;10.98;;
26407;SDS011;14583;43.604;1.364;2022-12-11T14:23:59;18.48;;;12.77;;
26407;SDS011;14583;43.604;1.364;2022-12-11T14:26:03;20.48;;;13.90;;
26407;SDS011;14583;43.604;1.364;2022-12-11T14:28:41;23.58;;;15.55;;
26407;SDS011;14583;43.604;1.364;2022-12-11T14:31:07;22.92;;;14.70;;
26407;SDS011;14583;43.604;1.364;2022-12-11T14:33:37;21.45;;;14.80;;
26407;SDS011;14583;43.604;1.364;2022-12-11T14:36:08;20.20;;;14.30;;
26407;SDS011;14583;43.604;1.364;2022-12-11T14:38:36;22.63;;;15.63;;
26407;SDS011;14583;43.604;1.364;2022-12-11T14:41:10;20.38;;;15.55;;
26407;SDS011;14583;43.604;1.364;2022-12-11T14:43:41;23.08;;;15.80;;
26407;SDS011;14583;43.604;1.364;2022-12-11T14:46:16;21.52;;;15.65;;
26407;SDS011;14583;43.604;1.364;2022-12-11T14:52:54;18.42;;;13.75;;
26407;SDS011;14583;43.604;1.364;2022-12-11T14:55:24;17.85;;;13.07;;
26407;SDS011;14583;43.604;1.364;2022-12-11T14:57:54;15.77;;;12.43;;
26407;SDS011;14583;43.604;1.364;2022-12-11T15:00:24;16.65;;;12.70;;
26407;SDS011;14583;43.604;1.364;2022-12-11T15:03:04;17.58;;;12.48;;
26407;SDS011;14583;43.604;1.364;2022-12-11T15:05:46;14.52;;;11.45;;
26407;SDS011;14583;43.604;1.364;2022-12-11T15:08:20;16.77;;;12.07;;
26407;SDS011;14583;43.604;1.364;2022-12-11T15:13:58;18.60;;;11.57;;
26407;SDS011;14583;43.604;1.364;2022-12-11T15:16:25;19.00;;;11.77;;
26407;SDS011;14583;43.604;1.364;2022-12-11T15:18:55;17.58;;;11.55;;
26407;SDS011;14583;43.604;1.364;2022-12-11T15:21:34;17.30;;;12.38;;
26407;SDS011;14583;43.604;1.364;2022-12-11T15:28:26;22.05;;;15.13;;
26407;SDS011;14583;43.604;1.364;2022-12-11T15:31:22;28.52;;;18.45;;
26407;SDS011;14583;43.604;1.364;2022-12-11T15:33:49;26.45;;;18.55;;
26407;SDS011;14583;43.604;1.364;2022-12-11T15:36:22;26.02;;;18.52;;
26407;SDS011;14583;43.604;1.364;2022-12-11T15:38:54;28.10;;;18.98;;
26407;SDS011;14583;43.604;1.364;2022-12-11T15:41:20;27.02;;;19.35;;
26407;SDS011;14583;43.604;1.364;2022-12-11T15:43:53;25.48;;;18.85;;
26407;SDS011;14583;43.604;1.364;2022-12-11T15:46:33;33.25;;;20.90;;
26407;SDS011;14583;43.604;1.364;2022-12-11T15:48:59;30.98;;;20.08;;
26407;SDS011;14583;43.604;1.364;2022-12-11T15:51:25;30.40;;;20.42;;
26407;SDS011;14583;43.604;1.364;2022-12-11T15:53:51;30.45;;;18.77;;
26407;SDS011;14583;43.604;1.364;2022-12-11T15:56:20;30.33;;;18.85;;
26407;SDS011;14583;43.604;1.364;2022-12-11T15:58:46;27.48;;;18.27;;
26407;SDS011;14583;43.604;1.364;2022-12-11T16:01:13;26.05;;;17.80;;
26407;SDS011;14583;43.604;1.364;2022-12-11T16:03:41;29.23;;;17.73;;
26407;SDS011;14583;43.604;1.364;2022-12-11T16:06:11;27.15;;;18.45;;
26407;SDS011;14583;43.604;1.364;2022-12-11T16:08:38;32.38;;;19.67;;
26407;SDS011;14583;43.604;1.364;2022-12-11T16:11:04;30.23;;;18.67;;
26407;SDS011;14583;43.604;1.364;2022-12-11T16:13:30;31.25;;;20.58;;
26407;SDS011;14583;43.604;1.364;2022-12-11T16:15:59;30.15;;;19.45;;
26407;SDS011;14583;43.604;1.364;2022-12-11T16:18:25;33.78;;;20.77;;
26407;SDS011;14583;43.604;1.364;2022-12-11T16:21:02;28.92;;;19.80;;
26407;SDS011;14583;43.604;1.364;2022-12-11T16:23:31;30.00;;;20.63;;
26407;SDS011;14583;43.604;1.364;2022-12-11T16:25:57;34.50;;;20.95;;
26407;SDS011;14583;43.604;1.364;2022-12-11T16:31:11;32.38;;;19.95;;